createdAt,value
2022-11-05T00:04:31.164Z,4.20
2022-11-05T00:10:03.797Z,3.35
2022-11-05T00:15:43.284Z,6.22
2022-11-05T00:21:04.540Z,6.30
2022-11-05T00:26:25.278Z,5.43
2022-11-05T00:31:45.865Z,6.72
2022-11-05T00:37:06.582Z,4.65
2022-11-05T00:42:45.682Z,6.32
2022-11-05T00:48:25.690Z,4.45
2022-11-05T00:53:46.413Z,6.97
2022-11-05T00:59:07.154Z,5.22
2022-11-05T01:04:27.991Z,4.90
2022-11-05T01:09:48.547Z,4.65
2022-11-05T01:15:09.544Z,4.32
2022-11-05T01:20:31.019Z,6.93
2022-11-05T01:25:51.601Z,5.55
2022-11-05T01:31:12.382Z,7.32
2022-11-05T01:36:33.079Z,6.15
2022-11-05T01:41:53.924Z,9.05
2022-11-05T01:47:41.732Z,5.07
2022-11-05T01:53:11.950Z,7.38
2022-11-05T01:58:58.323Z,8.38
2022-11-05T02:04:43.269Z,6.35
2022-11-05T02:10:07.287Z,5.53
2022-11-05T02:15:44.439Z,5.47
2022-11-05T02:21:36.536Z,5.45
2022-11-05T02:27:21.660Z,3.28
2022-11-05T02:32:53.462Z,2.70
2022-11-05T02:38:35.066Z,5.10
2022-11-05T02:44:14.192Z,4.10
2022-11-05T02:49:52.819Z,7.50
2022-11-05T02:55:22.488Z,4.85
2022-11-05T03:00:50.737Z,4.85
2022-11-05T03:06:23.048Z,4.63
2022-11-05T03:11:50.034Z,5.97
2022-11-05T03:17:33.663Z,4.63
2022-11-05T03:23:05.922Z,6.82
2022-11-05T03:28:31.416Z,4.40
2022-11-05T03:33:55.072Z,5.38
2022-11-05T03:39:26.697Z,5.72
2022-11-05T03:44:54.214Z,2.83
2022-11-05T03:50:34.670Z,7.07
2022-11-05T03:56:04.769Z,4.82
2022-11-05T04:01:25.599Z,4.55
2022-11-05T04:07:04.857Z,7.15
2022-11-05T04:12:44.329Z,5.45
2022-11-05T04:18:05.077Z,4.03
2022-11-05T04:23:44.076Z,7.70
2022-11-05T04:29:23.892Z,5.55
2022-11-05T04:34:44.522Z,4.83
2022-11-05T04:40:05.735Z,4.10
2022-11-05T04:45:28.980Z,3.20
2022-11-05T04:50:49.658Z,5.25
2022-11-05T04:56:19.317Z,3.15
2022-11-05T05:01:40.577Z,4.45
2022-11-05T05:07:01.314Z,4.82
2022-11-05T05:12:22.795Z,3.83
2022-11-05T05:17:43.714Z,3.40
2022-11-05T05:23:05.105Z,3.88
2022-11-05T05:28:27.465Z,6.55
2022-11-05T05:33:48.395Z,4.53
2022-11-05T05:39:11.046Z,8.70
2022-11-05T05:44:31.945Z,5.22
2022-11-05T05:49:52.919Z,5.13
2022-11-05T05:55:14.006Z,4.38
2022-11-05T06:00:34.789Z,6.72
2022-11-05T06:06:04.332Z,4.35
2022-11-05T06:11:25.719Z,7.43
2022-11-05T06:16:46.712Z,3.85
2022-11-05T06:22:07.563Z,5.25
2022-11-05T06:27:31.554Z,4.80
2022-11-05T06:32:52.335Z,4.88
2022-11-05T06:38:13.055Z,6.40
2022-11-05T06:43:33.851Z,4.22
2022-11-05T06:48:54.861Z,6.07
2022-11-05T06:54:15.469Z,5.07
2022-11-05T06:59:37.283Z,5.63
2022-11-05T07:04:57.921Z,6.40
2022-11-05T07:10:19.229Z,6.75
2022-11-05T07:15:39.833Z,5.60
2022-11-05T07:21:01.068Z,5.93
2022-11-05T07:26:21.893Z,4.45
2022-11-05T07:31:42.652Z,6.63
2022-11-05T07:37:03.639Z,5.38
2022-11-05T07:42:24.542Z,4.25
2022-11-05T07:48:00.425Z,10.32
2022-11-05T07:53:21.487Z,6.97
2022-11-05T07:58:42.222Z,4.80
2022-11-05T08:04:02.943Z,6.93
2022-11-05T08:09:23.816Z,6.85
2022-11-05T08:14:44.522Z,4.55
2022-11-05T08:20:06.069Z,7.22
2022-11-05T08:25:27.446Z,4.30
2022-11-05T08:30:53.244Z,8.07
2022-11-05T08:36:14.407Z,6.38
2022-11-05T08:41:35.197Z,3.88
2022-11-05T08:46:57.497Z,7.00
2022-11-05T08:52:18.407Z,7.30
2022-11-05T08:57:38.972Z,6.90
2022-11-05T09:03:01.041Z,6.75
2022-11-05T09:08:21.963Z,8.77
2022-11-05T09:13:42.774Z,4.70
2022-11-05T09:19:04.757Z,9.25
2022-11-05T09:24:25.789Z,6.90
2022-11-05T09:29:47.145Z,7.85
2022-11-05T09:35:09.016Z,7.57
2022-11-05T09:40:35.823Z,8.35
2022-11-05T09:46:02.405Z,5.18
2022-11-05T09:51:24.360Z,13.90
2022-11-05T09:56:47.013Z,5.68
2022-11-05T10:02:26.157Z,5.25
2022-11-05T10:08:36.252Z,4.88
2022-11-05T10:14:07.532Z,6.25
2022-11-05T10:19:41.485Z,5.63
2022-11-05T10:25:02.598Z,7.38
2022-11-05T10:30:23.597Z,5.03
2022-11-05T10:35:50.312Z,4.43
2022-11-05T10:41:30.049Z,4.60
2022-11-05T10:47:09.298Z,5.50
2022-11-05T10:52:37.194Z,6.17
2022-11-05T10:58:16.287Z,11.98
2022-11-05T11:03:48.964Z,4.00
2022-11-05T11:09:23.352Z,4.85
2022-11-05T11:15:20.276Z,7.60
2022-11-05T11:20:45.068Z,4.07
2022-11-05T11:26:07.483Z,5.68
2022-11-05T11:31:31.750Z,3.55
2022-11-05T11:36:56.549Z,3.33
2022-11-05T11:42:51.447Z,3.90
2022-11-05T11:48:22.654Z,3.75
2022-11-05T11:53:43.765Z,2.55
2022-11-05T11:59:17.091Z,4.18
2022-11-05T12:05:09.983Z,4.30
2022-11-05T12:10:51.693Z,2.30
2022-11-05T12:16:32.215Z,2.03
2022-11-05T12:27:32.024Z,6.32
2022-11-05T12:33:20.519Z,6.18
2022-11-05T12:39:35.545Z,3.60
2022-11-05T12:45:04.518Z,1.67
2022-11-05T12:50:47.775Z,2.95
2022-11-05T12:56:47.088Z,5.45
2022-11-05T13:02:21.985Z,6.35
2022-11-05T13:08:12.734Z,3.63
2022-11-05T13:13:40.911Z,2.28
2022-11-05T13:19:15.509Z,5.93
2022-11-05T13:25:01.041Z,6.75
2022-11-05T13:30:25.271Z,3.83
2022-11-05T13:36:23.922Z,4.05
2022-11-05T13:42:33.169Z,1.85
2022-11-05T13:48:27.951Z,2.85
2022-11-05T13:54:19.489Z,4.30
2022-11-05T14:00:01.569Z,5.38
2022-11-05T14:05:35.392Z,2.60
2022-11-05T14:11:03.657Z,3.42
2022-11-05T14:16:27.517Z,2.55
2022-11-05T14:21:54.201Z,3.92
2022-11-05T14:27:14.972Z,3.05
2022-11-05T14:32:50.065Z,1.08
2022-11-05T14:38:26.628Z,1.00
2022-11-05T14:43:58.837Z,2.80
2022-11-05T14:49:28.402Z,4.30
2022-11-05T14:54:52.480Z,3.57
2022-11-05T15:00:28.717Z,3.08
2022-11-05T15:06:03.308Z,5.50
2022-11-05T15:11:29.211Z,4.03
2022-11-05T15:16:55.968Z,6.55
2022-11-05T15:22:40.778Z,225.98
2022-11-05T15:28:26.331Z,9.60
2022-11-05T15:33:48.446Z,6.20
2022-11-05T15:39:30.420Z,5.72
2022-11-05T15:44:53.929Z,3.95
2022-11-05T15:50:16.009Z,3.15
2022-11-05T15:55:57.814Z,3.95
2022-11-05T16:01:31.019Z,6.50
2022-11-05T16:06:55.111Z,4.35
2022-11-05T16:12:19.444Z,4.93
2022-11-05T16:17:40.353Z,5.18
2022-11-05T16:23:04.045Z,4.68
2022-11-05T16:28:27.109Z,6.10
2022-11-05T16:33:48.524Z,10.82
2022-11-05T16:39:09.547Z,5.68
2022-11-05T16:44:30.310Z,6.30
2022-11-05T16:49:51.137Z,8.05
2022-11-05T16:55:13.365Z,7.43
2022-11-05T17:00:34.454Z,6.38
2022-11-05T17:05:55.055Z,8.60
2022-11-05T17:11:20.867Z,15.98
2022-11-05T17:16:41.667Z,10.80
2022-11-05T17:22:02.461Z,10.80
2022-11-05T17:27:23.200Z,28.67
2022-11-05T17:32:43.973Z,43.47
2022-11-05T17:38:05.020Z,47.15
2022-11-05T17:43:26.229Z,132.20
2022-11-05T17:48:47.045Z,108.43
2022-11-05T17:54:07.700Z,121.72
2022-11-05T17:59:28.454Z,108.55
2022-11-05T18:04:49.135Z,96.00
2022-11-05T18:10:10.367Z,215.65
2022-11-05T18:15:31.344Z,263.23
2022-11-05T18:20:52.215Z,269.38
2022-11-05T18:26:15.371Z,283.45
2022-11-05T18:31:35.912Z,328.30
2022-11-05T18:36:56.858Z,251.43
2022-11-05T18:42:18.050Z,136.00
2022-11-05T18:47:38.997Z,105.53
2022-11-05T18:52:59.654Z,66.78
2022-11-05T18:58:20.485Z,47.90
2022-11-05T19:03:41.757Z,188.95
2022-11-05T19:09:03.809Z,223.35
2022-11-05T19:14:24.772Z,225.77
2022-11-05T19:19:45.456Z,163.63
2022-11-05T19:25:07.755Z,77.03
2022-11-05T19:30:28.534Z,64.72
2022-11-05T19:35:49.244Z,51.10
2022-11-05T19:41:14.663Z,40.70
2022-11-05T19:46:35.448Z,19.45
2022-11-05T19:51:57.502Z,18.65
2022-11-05T19:57:18.462Z,60.35
2022-11-05T20:02:43.683Z,156.77
2022-11-05T20:08:04.994Z,54.58
2022-11-05T20:13:26.127Z,13.07
2022-11-05T20:18:47.079Z,11.68
2022-11-05T20:24:09.874Z,10.73
2022-11-05T20:29:35.738Z,12.07
2022-11-05T20:34:56.762Z,40.03
2022-11-05T20:40:17.630Z,213.18
2022-11-05T20:45:38.677Z,179.95
2022-11-05T20:50:59.952Z,435.88
2022-11-05T20:56:23.280Z,378.30
2022-11-05T21:01:44.183Z,318.48
2022-11-05T21:07:05.235Z,217.07
2022-11-05T21:12:26.021Z,222.80
2022-11-05T21:17:46.989Z,233.32
2022-11-05T21:23:07.795Z,186.88
2022-11-05T21:28:28.502Z,152.93
2022-11-05T21:33:54.858Z,157.05
2022-11-05T21:39:16.439Z,96.45
2022-11-05T21:44:37.106Z,69.63
2022-11-05T21:49:58.000Z,51.17
2022-11-05T21:55:37.213Z,38.50
2022-11-05T22:00:58.587Z,33.75
2022-11-05T22:06:19.339Z,26.20
2022-11-05T22:11:40.093Z,23.55
2022-11-05T22:17:03.026Z,23.92
2022-11-05T22:22:23.660Z,30.10
2022-11-05T22:27:44.412Z,40.20
2022-11-05T22:33:05.214Z,34.60
2022-11-05T22:38:25.849Z,26.55
2022-11-05T22:43:46.642Z,24.10
2022-11-05T22:49:07.481Z,21.52
2022-11-05T22:54:28.654Z,19.58
2022-11-05T22:59:49.319Z,18.70
2022-11-05T23:05:10.571Z,23.98
2022-11-05T23:10:50.101Z,20.30
2022-11-05T23:16:29.736Z,14.10
2022-11-05T23:22:09.058Z,15.15
2022-11-05T23:27:31.489Z,14.73
2022-11-05T23:32:53.467Z,16.55
2022-11-05T23:38:34.072Z,16.13
